sensor_id;sensor_type;location;lat;lon;timestamp;temperature;humidity
15636;DHT22;7917;50.818;6.972;2022-11-20T00:00:23;3.30;99.90
15636;DHT22;7917;50.818;6.972;2022-11-20T00:02:50;3.30;99.90
15636;DHT22;7917;50.818;6.972;2022-11-20T00:05:18;3.30;99.90
15636;DHT22;7917;50.818;6.972;2022-11-20T00:07:46;3.30;99.90
15636;DHT22;7917;50.818;6.972;2022-11-20T00:10:15;3.40;99.90
15636;DHT22;7917;50.818;6.972;2022-11-20T00:12:42;3.30;99.90
15636;DHT22;7917;50.818;6.972;2022-11-20T00:15:10;3.40;99.90
15636;DHT22;7917;50.818;6.972;2022-11-20T00:17:37;3.40;99.90
15636;DHT22;7917;50.818;6.972;2022-11-20T00:20:05;3.40;99.90
15636;DHT22;7917;50.818;6.972;2022-11-20T00:22:32;3.40;99.90
15636;DHT22;7917;50.818;6.972;2022-11-20T00:25:00;3.40;99.90
15636;DHT22;7917;50.818;6.972;2022-11-20T00:27:29;3.40;99.90
15636;DHT22;7917;50.818;6.972;2022-11-20T00:29:56;3.40;99.90
15636;DHT22;7917;50.818;6.972;2022-11-20T00:32:23;3.30;99.90
15636;DHT22;7917;50.818;6.972;2022-11-20T00:34:51;3.40;99.90
15636;DHT22;7917;50.818;6.972;2022-11-20T00:37:18;3.40;99.90
15636;DHT22;7917;50.818;6.972;2022-11-20T00:39:45;3.40;99.90
15636;DHT22;7917;50.818;6.972;2022-11-20T00:42:12;3.40;99.90
15636;DHT22;7917;50.818;6.972;2022-11-20T00:44:41;3.40;99.90
15636;DHT22;7917;50.818;6.972;2022-11-20T00:47:08;3.40;99.90
15636;DHT22;7917;50.818;6.972;2022-11-20T00:49:35;3.30;99.90
15636;DHT22;7917;50.818;6.972;2022-11-20T00:52:02;3.30;99.90
15636;DHT22;7917;50.818;6.972;2022-11-20T00:54:30;3.20;99.90
15636;DHT22;7917;50.818;6.972;2022-11-20T00:56:58;3.30;99.90
15636;DHT22;7917;50.818;6.972;2022-11-20T00:59:25;3.30;99.90
15636;DHT22;7917;50.818;6.972;2022-11-20T01:01:54;3.20;99.90
15636;DHT22;7917;50.818;6.972;2022-11-20T01:04:21;3.20;99.90
15636;DHT22;7917;50.818;6.972;2022-11-20T01:06:48;3.30;99.90
15636;DHT22;7917;50.818;6.972;2022-11-20T01:09:16;3.30;99.90
15636;DHT22;7917;50.818;6.972;2022-11-20T01:11:44;3.20;99.90
15636;DHT22;7917;50.818;6.972;2022-11-20T01:14:13;3.20;99.90
15636;DHT22;7917;50.818;6.972;2022-11-20T01:16:42;3.20;99.90
15636;DHT22;7917;50.818;6.972;2022-11-20T01:19:16;3.20;99.90
15636;DHT22;7917;50.818;6.972;2022-11-20T01:21:47;3.20;99.90
15636;DHT22;7917;50.818;6.972;2022-11-20T01:24:16;3.20;99.90
15636;DHT22;7917;50.818;6.972;2022-11-20T01:26:44;3.30;99.90
15636;DHT22;7917;50.818;6.972;2022-11-20T01:29:15;3.30;99.90
15636;DHT22;7917;50.818;6.972;2022-11-20T01:31:42;3.20;99.90
15636;DHT22;7917;50.818;6.972;2022-11-20T01:34:13;3.30;99.90
15636;DHT22;7917;50.818;6.972;2022-11-20T01:36:42;3.30;99.90
15636;DHT22;7917;50.818;6.972;2022-11-20T01:39:12;3.30;99.90
15636;DHT22;7917;50.818;6.972;2022-11-20T01:41:40;3.30;99.90
15636;DHT22;7917;50.818;6.972;2022-11-20T01:44:50;3.30;99.90
15636;DHT22;7917;50.818;6.972;2022-11-20T01:47:29;3.30;99.90
15636;DHT22;7917;50.818;6.972;2022-11-20T01:50:04;3.40;99.90
15636;DHT22;7917;50.818;6.972;2022-11-20T01:52:36;3.40;99.90
15636;DHT22;7917;50.818;6.972;2022-11-20T01:55:08;3.30;99.90
15636;DHT22;7917;50.818;6.972;2022-11-20T01:57:36;3.30;99.90
15636;DHT22;7917;50.818;6.972;2022-11-20T02:00:08;3.30;99.90
15636;DHT22;7917;50.818;6.972;2022-11-20T02:02:37;3.30;99.90
15636;DHT22;7917;50.818;6.972;2022-11-20T02:05:14;3.30;99.90
15636;DHT22;7917;50.818;6.972;2022-11-20T02:07:46;3.30;99.90
15636;DHT22;7917;50.818;6.972;2022-11-20T02:10:14;3.30;99.90
15636;DHT22;7917;50.818;6.972;2022-11-20T02:12:42;3.10;99.90
15636;DHT22;7917;50.818;6.972;2022-11-20T02:15:27;3.00;99.90
15636;DHT22;7917;50.818;6.972;2022-11-20T02:17:54;2.90;99.90
15636;DHT22;7917;50.818;6.972;2022-11-20T02:20:23;2.70;99.90
15636;DHT22;7917;50.818;6.972;2022-11-20T02:22:55;2.70;99.90
15636;DHT22;7917;50.818;6.972;2022-11-20T02:25:26;2.60;99.90
15636;DHT22;7917;50.818;6.972;2022-11-20T02:27:54;2.60;99.90
15636;DHT22;7917;50.818;6.972;2022-11-20T02:30:22;2.60;99.90
15636;DHT22;7917;50.818;6.972;2022-11-20T02:32:50;2.60;99.90
15636;DHT22;7917;50.818;6.972;2022-11-20T02:35:40;2.70;99.90
15636;DHT22;7917;50.818;6.972;2022-11-20T02:38:08;2.80;99.90
15636;DHT22;7917;50.818;6.972;2022-11-20T02:40:37;2.80;99.90
15636;DHT22;7917;50.818;6.972;2022-11-20T02:43:04;2.90;99.90
15636;DHT22;7917;50.818;6.972;2022-11-20T02:45:32;2.90;99.90
15636;DHT22;7917;50.818;6.972;2022-11-20T02:47:59;3.00;99.90
15636;DHT22;7917;50.818;6.972;2022-11-20T02:50:27;3.00;99.90
15636;DHT22;7917;50.818;6.972;2022-11-20T02:52:54;3.00;99.90
15636;DHT22;7917;50.818;6.972;2022-11-20T02:55:21;3.00;99.90
15636;DHT22;7917;50.818;6.972;2022-11-20T02:57:50;3.00;99.90
15636;DHT22;7917;50.818;6.972;2022-11-20T03:00:18;3.00;99.90
15636;DHT22;7917;50.818;6.972;2022-11-20T03:02:47;3.00;99.90
15636;DHT22;7917;50.818;6.972;2022-11-20T03:05:15;3.00;99.90
15636;DHT22;7917;50.818;6.972;2022-11-20T03:07:43;3.10;99.90
15636;DHT22;7917;50.818;6.972;2022-11-20T03:10:11;3.10;99.90
15636;DHT22;7917;50.818;6.972;2022-11-20T03:12:39;3.10;99.90
15636;DHT22;7917;50.818;6.972;2022-11-20T03:15:09;3.10;99.90
15636;DHT22;7917;50.818;6.972;2022-11-20T03:17:36;3.20;99.90
15636;DHT22;7917;50.818;6.972;2022-11-20T03:20:05;3.20;99.90
15636;DHT22;7917;50.818;6.972;2022-11-20T03:22:32;3.20;99.90
15636;DHT22;7917;50.818;6.972;2022-11-20T03:25:00;3.10;99.90
15636;DHT22;7917;50.818;6.972;2022-11-20T03:27:34;3.10;99.90
15636;DHT22;7917;50.818;6.972;2022-11-20T03:30:02;3.20;99.90
15636;DHT22;7917;50.818;6.972;2022-11-20T03:32:31;3.20;99.90
15636;DHT22;7917;50.818;6.972;2022-11-20T03:34:58;3.20;99.90
15636;DHT22;7917;50.818;6.972;2022-11-20T03:37:26;3.20;99.90
15636;DHT22;7917;50.818;6.972;2022-11-20T03:39:53;3.20;99.90
15636;DHT22;7917;50.818;6.972;2022-11-20T03:42:21;3.20;99.90
15636;DHT22;7917;50.818;6.972;2022-11-20T03:45:06;3.20;99.90
15636;DHT22;7917;50.818;6.972;2022-11-20T03:47:35;3.20;99.90
15636;DHT22;7917;50.818;6.972;2022-11-20T03:50:02;3.20;99.90
15636;DHT22;7917;50.818;6.972;2022-11-20T03:52:30;3.30;99.90
15636;DHT22;7917;50.818;6.972;2022-11-20T03:54:57;3.30;99.90
15636;DHT22;7917;50.818;6.972;2022-11-20T03:57:24;3.20;99.90
15636;DHT22;7917;50.818;6.972;2022-11-20T03:59:52;3.30;99.90
15636;DHT22;7917;50.818;6.972;2022-11-20T04:02:20;3.30;99.90
15636;DHT22;7917;50.818;6.972;2022-11-20T04:04:49;3.20;99.90
15636;DHT22;7917;50.818;6.972;2022-11-20T04:07:16;3.20;99.90
15636;DHT22;7917;50.818;6.972;2022-11-20T04:09:43;3.20;99.90
15636;DHT22;7917;50.818;6.972;2022-11-20T04:12:10;3.20;99.90
15636;DHT22;7917;50.818;6.972;2022-11-20T04:14:37;3.20;99.90
15636;DHT22;7917;50.818;6.972;2022-11-20T04:17:05;3.20;99.90
15636;DHT22;7917;50.818;6.972;2022-11-20T04:19:32;3.20;99.90
15636;DHT22;7917;50.818;6.972;2022-11-20T04:22:01;3.20;99.90
15636;DHT22;7917;50.818;6.972;2022-11-20T04:24:30;3.20;99.90
15636;DHT22;7917;50.818;6.972;2022-11-20T04:26:57;3.20;99.90
15636;DHT22;7917;50.818;6.972;2022-11-20T04:29:24;3.20;99.90
15636;DHT22;7917;50.818;6.972;2022-11-20T04:31:51;3.10;99.90
15636;DHT22;7917;50.818;6.972;2022-11-20T04:34:19;3.10;99.90
15636;DHT22;7917;50.818;6.972;2022-11-20T04:36:46;3.20;99.90
15636;DHT22;7917;50.818;6.972;2022-11-20T04:39:15;3.20;99.90
15636;DHT22;7917;50.818;6.972;2022-11-20T04:41:42;3.20;99.90
15636;DHT22;7917;50.818;6.972;2022-11-20T04:44:10;3.20;99.90
15636;DHT22;7917;50.818;6.972;2022-11-20T04:46:39;3.20;99.90
15636;DHT22;7917;50.818;6.972;2022-11-20T04:49:07;3.20;99.90
15636;DHT22;7917;50.818;6.972;2022-11-20T04:51:35;3.20;99.90
15636;DHT22;7917;50.818;6.972;2022-11-20T04:54:02;3.20;99.90
15636;DHT22;7917;50.818;6.972;2022-11-20T04:56:31;3.10;99.90
15636;DHT22;7917;50.818;6.972;2022-11-20T04:59:00;3.20;99.90
15636;DHT22;7917;50.818;6.972;2022-11-20T05:01:28;3.20;99.90
15636;DHT22;7917;50.818;6.972;2022-11-20T05:03:55;3.20;99.90
15636;DHT22;7917;50.818;6.972;2022-11-20T05:06:22;3.10;99.90
15636;DHT22;7917;50.818;6.972;2022-11-20T05:08:50;3.10;99.90
15636;DHT22;7917;50.818;6.972;2022-11-20T05:11:18;3.10;99.90
15636;DHT22;7917;50.818;6.972;2022-11-20T05:13:48;3.10;99.90
15636;DHT22;7917;50.818;6.972;2022-11-20T05:16:16;3.20;99.90
15636;DHT22;7917;50.818;6.972;2022-11-20T05:18:44;3.20;99.90
15636;DHT22;7917;50.818;6.972;2022-11-20T05:21:12;3.20;99.90
15636;DHT22;7917;50.818;6.972;2022-11-20T05:23:42;3.20;99.90
15636;DHT22;7917;50.818;6.972;2022-11-20T05:26:15;3.20;99.90
15636;DHT22;7917;50.818;6.972;2022-11-20T05:28:43;3.20;99.90
15636;DHT22;7917;50.818;6.972;2022-11-20T05:31:13;3.20;99.90
15636;DHT22;7917;50.818;6.972;2022-11-20T05:33:42;3.20;99.90
15636;DHT22;7917;50.818;6.972;2022-11-20T05:36:10;3.20;99.90
15636;DHT22;7917;50.818;6.972;2022-11-20T05:38:38;3.20;99.90
15636;DHT22;7917;50.818;6.972;2022-11-20T05:41:10;3.20;99.90
15636;DHT22;7917;50.818;6.972;2022-11-20T05:43:39;3.20;99.90
15636;DHT22;7917;50.818;6.972;2022-11-20T05:46:08;3.30;99.90
15636;DHT22;7917;50.818;6.972;2022-11-20T05:48:38;3.30;99.90
15636;DHT22;7917;50.818;6.972;2022-11-20T05:51:08;3.30;99.90
15636;DHT22;7917;50.818;6.972;2022-11-20T05:53:36;3.30;99.90
15636;DHT22;7917;50.818;6.972;2022-11-20T05:56:07;3.30;99.90
15636;DHT22;7917;50.818;6.972;2022-11-20T05:58:36;3.30;99.90
15636;DHT22;7917;50.818;6.972;2022-11-20T06:01:10;3.30;99.90
15636;DHT22;7917;50.818;6.972;2022-11-20T06:03:39;3.30;99.90
15636;DHT22;7917;50.818;6.972;2022-11-20T06:06:08;3.30;99.90
15636;DHT22;7917;50.818;6.972;2022-11-20T06:08:35;3.30;99.90
15636;DHT22;7917;50.818;6.972;2022-11-20T06:11:04;3.30;99.90
15636;DHT22;7917;50.818;6.972;2022-11-20T06:13:32;3.40;99.90
15636;DHT22;7917;50.818;6.972;2022-11-20T06:15:59;3.40;99.90
15636;DHT22;7917;50.818;6.972;2022-11-20T06:18:28;3.30;99.90
15636;DHT22;7917;50.818;6.972;2022-11-20T06:21:04;3.40;99.90
15636;DHT22;7917;50.818;6.972;2022-11-20T06:23:32;3.40;99.90
15636;DHT22;7917;50.818;6.972;2022-11-20T06:26:02;3.40;99.90
15636;DHT22;7917;50.818;6.972;2022-11-20T06:28:30;3.40;99.90
15636;DHT22;7917;50.818;6.972;2022-11-20T06:30:57;3.40;99.90
15636;DHT22;7917;50.818;6.972;2022-11-20T06:33:25;3.40;99.90
15636;DHT22;7917;50.818;6.972;2022-11-20T06:35:52;3.30;99.90
15636;DHT22;7917;50.818;6.972;2022-11-20T06:38:20;3.40;99.90
15636;DHT22;7917;50.818;6.972;2022-11-20T06:40:47;3.40;99.90
15636;DHT22;7917;50.818;6.972;2022-11-20T06:43:15;3.40;99.90
15636;DHT22;7917;50.818;6.972;2022-11-20T06:45:42;3.40;99.90
15636;DHT22;7917;50.818;6.972;2022-11-20T06:48:09;3.50;99.90
15636;DHT22;7917;50.818;6.972;2022-11-20T06:50:37;3.50;99.90
15636;DHT22;7917;50.818;6.972;2022-11-20T06:53:04;3.40;99.90
15636;DHT22;7917;50.818;6.972;2022-11-20T06:55:33;3.40;99.90
15636;DHT22;7917;50.818;6.972;2022-11-20T06:58:00;3.40;99.90
15636;DHT22;7917;50.818;6.972;2022-11-20T07:00:27;3.40;99.90
15636;DHT22;7917;50.818;6.972;2022-11-20T07:02:57;3.40;99.90
15636;DHT22;7917;50.818;6.972;2022-11-20T07:05:24;3.40;99.90
15636;DHT22;7917;50.818;6.972;2022-11-20T07:07:51;3.40;99.90
15636;DHT22;7917;50.818;6.972;2022-11-20T07:10:19;3.50;99.90
15636;DHT22;7917;50.818;6.972;2022-11-20T07:12:52;3.50;99.90
15636;DHT22;7917;50.818;6.972;2022-11-20T07:15:21;3.50;99.90
15636;DHT22;7917;50.818;6.972;2022-11-20T07:17:48;3.50;99.90
15636;DHT22;7917;50.818;6.972;2022-11-20T07:20:16;3.50;99.90
15636;DHT22;7917;50.818;6.972;2022-11-20T07:22:43;3.40;99.90
15636;DHT22;7917;50.818;6.972;2022-11-20T07:25:10;3.50;99.90
15636;DHT22;7917;50.818;6.972;2022-11-20T07:27:38;3.60;99.90
15636;DHT22;7917;50.818;6.972;2022-11-20T07:30:07;3.60;99.90
15636;DHT22;7917;50.818;6.972;2022-11-20T07:32:35;3.60;99.90
15636;DHT22;7917;50.818;6.972;2022-11-20T07:35:02;3.60;99.90
15636;DHT22;7917;50.818;6.972;2022-11-20T07:37:29;3.60;99.90
15636;DHT22;7917;50.818;6.972;2022-11-20T07:39:56;3.60;99.90
15636;DHT22;7917;50.818;6.972;2022-11-20T07:42:27;3.60;99.90
15636;DHT22;7917;50.818;6.972;2022-11-20T07:44:54;3.60;99.90
15636;DHT22;7917;50.818;6.972;2022-11-20T07:47:23;3.70;99.90
15636;DHT22;7917;50.818;6.972;2022-11-20T07:49:51;3.70;99.90
15636;DHT22;7917;50.818;6.972;2022-11-20T07:52:23;3.70;99.90
15636;DHT22;7917;50.818;6.972;2022-11-20T07:54:50;3.80;99.90
15636;DHT22;7917;50.818;6.972;2022-11-20T07:57:18;3.80;99.90
15636;DHT22;7917;50.818;6.972;2022-11-20T07:59:45;3.90;99.90
15636;DHT22;7917;50.818;6.972;2022-11-20T08:02:12;3.90;99.90
15636;DHT22;7917;50.818;6.972;2022-11-20T08:04:41;3.90;99.90
15636;DHT22;7917;50.818;6.972;2022-11-20T08:07:08;3.90;99.90
15636;DHT22;7917;50.818;6.972;2022-11-20T08:09:35;3.90;99.90
15636;DHT22;7917;50.818;6.972;2022-11-20T08:12:03;3.90;99.90
15636;DHT22;7917;50.818;6.972;2022-11-20T08:14:56;4.00;99.90
15636;DHT22;7917;50.818;6.972;2022-11-20T08:17:24;3.90;99.90
15636;DHT22;7917;50.818;6.972;2022-11-20T08:19:53;3.90;99.90
15636;DHT22;7917;50.818;6.972;2022-11-20T08:22:20;4.00;99.90
15636;DHT22;7917;50.818;6.972;2022-11-20T08:24:47;4.10;99.90
15636;DHT22;7917;50.818;6.972;2022-11-20T08:27:15;4.10;99.90
15636;DHT22;7917;50.818;6.972;2022-11-20T08:29:42;4.20;99.90
15636;DHT22;7917;50.818;6.972;2022-11-20T08:32:09;4.20;99.90
15636;DHT22;7917;50.818;6.972;2022-11-20T08:34:37;4.30;99.90
15636;DHT22;7917;50.818;6.972;2022-11-20T08:37:07;4.20;99.90
15636;DHT22;7917;50.818;6.972;2022-11-20T08:39:34;4.20;99.90
15636;DHT22;7917;50.818;6.972;2022-11-20T08:42:01;4.20;99.90
15636;DHT22;7917;50.818;6.972;2022-11-20T08:44:29;4.20;99.90
15636;DHT22;7917;50.818;6.972;2022-11-20T08:46:56;4.20;99.90
15636;DHT22;7917;50.818;6.972;2022-11-20T08:49:24;4.40;99.90
15636;DHT22;7917;50.818;6.972;2022-11-20T08:51:51;4.40;99.90
15636;DHT22;7917;50.818;6.972;2022-11-20T08:54:22;4.40;99.90
15636;DHT22;7917;50.818;6.972;2022-11-20T08:56:49;4.30;99.90
15636;DHT22;7917;50.818;6.972;2022-11-20T08:59:16;4.30;99.90
15636;DHT22;7917;50.818;6.972;2022-11-20T09:01:43;4.30;99.90
15636;DHT22;7917;50.818;6.972;2022-11-20T09:04:11;4.40;99.90
15636;DHT22;7917;50.818;6.972;2022-11-20T09:06:40;4.50;99.90
15636;DHT22;7917;50.818;6.972;2022-11-20T09:09:08;4.60;99.90
15636;DHT22;7917;50.818;6.972;2022-11-20T09:11:38;4.80;99.90
15636;DHT22;7917;50.818;6.972;2022-11-20T09:14:06;5.00;99.90
15636;DHT22;7917;50.818;6.972;2022-11-20T09:16:33;5.00;99.90
15636;DHT22;7917;50.818;6.972;2022-11-20T09:19:00;5.00;99.90
15636;DHT22;7917;50.818;6.972;2022-11-20T09:21:28;5.00;99.90
15636;DHT22;7917;50.818;6.972;2022-11-20T09:23:55;5.00;99.90
15636;DHT22;7917;50.818;6.972;2022-11-20T09:26:22;5.00;99.90
15636;DHT22;7917;50.818;6.972;2022-11-20T09:28:51;4.90;99.90
15636;DHT22;7917;50.818;6.972;2022-11-20T09:31:22;4.90;99.90
15636;DHT22;7917;50.818;6.972;2022-11-20T09:33:51;5.10;99.90
15636;DHT22;7917;50.818;6.972;2022-11-20T09:36:18;5.20;99.90
15636;DHT22;7917;50.818;6.972;2022-11-20T09:38:46;5.30;99.90
15636;DHT22;7917;50.818;6.972;2022-11-20T09:41:32;5.30;99.90
15636;DHT22;7917;50.818;6.972;2022-11-20T09:44:10;5.50;99.90
15636;DHT22;7917;50.818;6.972;2022-11-20T09:46:47;5.80;99.90
15636;DHT22;7917;50.818;6.972;2022-11-20T09:49:23;5.90;99.90
15636;DHT22;7917;50.818;6.972;2022-11-20T09:51:57;6.10;99.90
15636;DHT22;7917;50.818;6.972;2022-11-20T09:54:29;6.20;99.90
15636;DHT22;7917;50.818;6.972;2022-11-20T09:57:01;6.20;99.90
15636;DHT22;7917;50.818;6.972;2022-11-20T09:59:40;6.20;99.90
15636;DHT22;7917;50.818;6.972;2022-11-20T10:02:16;6.10;99.90
15636;DHT22;7917;50.818;6.972;2022-11-20T10:04:49;6.00;99.90
15636;DHT22;7917;50.818;6.972;2022-11-20T10:07:22;6.10;99.90
15636;DHT22;7917;50.818;6.972;2022-11-20T10:09:53;6.10;99.90
15636;DHT22;7917;50.818;6.972;2022-11-20T10:12:27;6.10;99.90
15636;DHT22;7917;50.818;6.972;2022-11-20T10:15:10;6.00;99.90
15636;DHT22;7917;50.818;6.972;2022-11-20T10:20:45;5.80;99.90
15636;DHT22;7917;50.818;6.972;2022-11-20T10:23:27;5.70;99.90
15636;DHT22;7917;50.818;6.972;2022-11-20T10:26:00;5.80;99.90
15636;DHT22;7917;50.818;6.972;2022-11-20T10:28:40;6.00;99.90
15636;DHT22;7917;50.818;6.972;2022-11-20T10:31:23;6.20;99.90
15636;DHT22;7917;50.818;6.972;2022-11-20T10:33:53;6.30;99.90
15636;DHT22;7917;50.818;6.972;2022-11-20T10:36:23;6.50;99.90
15636;DHT22;7917;50.818;6.972;2022-11-20T10:38:57;6.50;99.90
15636;DHT22;7917;50.818;6.972;2022-11-20T10:41:28;6.50;99.90
15636;DHT22;7917;50.818;6.972;2022-11-20T10:44:03;6.40;99.90
15636;DHT22;7917;50.818;6.972;2022-11-20T10:46:38;6.30;99.90
15636;DHT22;7917;50.818;6.972;2022-11-20T10:49:13;6.30;99.90
15636;DHT22;7917;50.818;6.972;2022-11-20T10:51:52;6.20;99.90
15636;DHT22;7917;50.818;6.972;2022-11-20T10:54:29;6.10;99.90
15636;DHT22;7917;50.818;6.972;2022-11-20T10:57:03;6.10;99.90
15636;DHT22;7917;50.818;6.972;2022-11-20T10:59:55;6.00;99.90
15636;DHT22;7917;50.818;6.972;2022-11-20T11:02:34;6.00;99.90
15636;DHT22;7917;50.818;6.972;2022-11-20T11:05:16;5.90;99.90
15636;DHT22;7917;50.818;6.972;2022-11-20T11:07:45;5.90;99.90
15636;DHT22;7917;50.818;6.972;2022-11-20T11:10:16;6.00;99.90
15636;DHT22;7917;50.818;6.972;2022-11-20T11:12:45;6.10;99.90
15636;DHT22;7917;50.818;6.972;2022-11-20T11:15:24;6.20;99.90
15636;DHT22;7917;50.818;6.972;2022-11-20T11:17:54;6.30;99.90
15636;DHT22;7917;50.818;6.972;2022-11-20T11:20:22;6.50;99.90
15636;DHT22;7917;50.818;6.972;2022-11-20T11:22:52;6.60;99.90
15636;DHT22;7917;50.818;6.972;2022-11-20T11:25:27;6.60;99.90
15636;DHT22;7917;50.818;6.972;2022-11-20T11:27:58;6.70;99.90
15636;DHT22;7917;50.818;6.972;2022-11-20T11:30:27;6.70;99.90
15636;DHT22;7917;50.818;6.972;2022-11-20T11:33:10;6.70;99.90
15636;DHT22;7917;50.818;6.972;2022-11-20T11:35:44;6.60;99.90
15636;DHT22;7917;50.818;6.972;2022-11-20T11:38:16;6.40;1.00
15636;DHT22;7917;50.818;6.972;2022-11-20T11:40:44;6.40;99.90
15636;DHT22;7917;50.818;6.972;2022-11-20T11:43:19;6.30;1.00
15636;DHT22;7917;50.818;6.972;2022-11-20T11:46:21;6.30;99.90
15636;DHT22;7917;50.818;6.972;2022-11-20T11:48:57;6.30;99.90
15636;DHT22;7917;50.818;6.972;2022-11-20T11:51:28;6.40;1.00
15636;DHT22;7917;50.818;6.972;2022-11-20T11:53:58;6.30;1.00
15636;DHT22;7917;50.818;6.972;2022-11-20T11:56:28;6.30;99.90
15636;DHT22;7917;50.818;6.972;2022-11-20T11:58:56;6.30;1.00
15636;DHT22;7917;50.818;6.972;2022-11-20T12:01:29;6.30;1.00
15636;DHT22;7917;50.818;6.972;2022-11-20T12:04:05;6.20;99.90
15636;DHT22;7917;50.818;6.972;2022-11-20T12:06:37;6.20;99.90
15636;DHT22;7917;50.818;6.972;2022-11-20T12:09:09;6.20;99.90
15636;DHT22;7917;50.818;6.972;2022-11-20T12:11:46;6.10;99.90
15636;DHT22;7917;50.818;6.972;2022-11-20T12:14:18;6.10;99.90
15636;DHT22;7917;50.818;6.972;2022-11-20T12:16:50;6.10;99.90
15636;DHT22;7917;50.818;6.972;2022-11-20T12:19:20;6.20;99.90
15636;DHT22;7917;50.818;6.972;2022-11-20T12:21:57;6.20;99.90
15636;DHT22;7917;50.818;6.972;2022-11-20T12:24:43;6.30;99.90
15636;DHT22;7917;50.818;6.972;2022-11-20T12:27:48;6.40;99.90
15636;DHT22;7917;50.818;6.972;2022-11-20T12:30:21;6.60;99.90
15636;DHT22;7917;50.818;6.972;2022-11-20T12:33:08;6.80;99.90
15636;DHT22;7917;50.818;6.972;2022-11-20T12:35:58;6.80;99.90
15636;DHT22;7917;50.818;6.972;2022-11-20T12:38:50;6.90;99.90
15636;DHT22;7917;50.818;6.972;2022-11-20T12:41:28;7.00;99.90
15636;DHT22;7917;50.818;6.972;2022-11-20T12:44:33;7.00;99.90
15636;DHT22;7917;50.818;6.972;2022-11-20T12:47:24;7.10;99.90
15636;DHT22;7917;50.818;6.972;2022-11-20T12:49:58;7.00;99.90
15636;DHT22;7917;50.818;6.972;2022-11-20T12:52:47;6.90;99.90
15636;DHT22;7917;50.818;6.972;2022-11-20T12:55:28;6.80;99.90
15636;DHT22;7917;50.818;6.972;2022-11-20T12:58:04;6.90;99.90
15636;DHT22;7917;50.818;6.972;2022-11-20T13:00:34;6.90;99.90
15636;DHT22;7917;50.818;6.972;2022-11-20T13:03:28;6.90;99.90
15636;DHT22;7917;50.818;6.972;2022-11-20T13:06:05;7.00;99.90
15636;DHT22;7917;50.818;6.972;2022-11-20T13:08:35;7.00;99.90
15636;DHT22;7917;50.818;6.972;2022-11-20T13:11:09;7.00;99.90
15636;DHT22;7917;50.818;6.972;2022-11-20T13:13:50;7.00;99.90
15636;DHT22;7917;50.818;6.972;2022-11-20T13:16:24;7.00;99.90
15636;DHT22;7917;50.818;6.972;2022-11-20T13:18:53;7.00;99.90
15636;DHT22;7917;50.818;6.972;2022-11-20T13:21:35;7.10;99.90
15636;DHT22;7917;50.818;6.972;2022-11-20T13:24:06;7.10;99.90
15636;DHT22;7917;50.818;6.972;2022-11-20T13:26:34;7.20;99.90
15636;DHT22;7917;50.818;6.972;2022-11-20T13:29:08;7.10;99.90
15636;DHT22;7917;50.818;6.972;2022-11-20T13:31:40;7.10;99.90
15636;DHT22;7917;50.818;6.972;2022-11-20T13:34:12;7.10;99.90
15636;DHT22;7917;50.818;6.972;2022-11-20T13:36:49;7.10;99.90
15636;DHT22;7917;50.818;6.972;2022-11-20T13:39:26;7.10;99.90
15636;DHT22;7917;50.818;6.972;2022-11-20T13:41:58;7.00;99.90
15636;DHT22;7917;50.818;6.972;2022-11-20T13:44:29;7.00;99.90
15636;DHT22;7917;50.818;6.972;2022-11-20T13:46:57;7.00;99.90
15636;DHT22;7917;50.818;6.972;2022-11-20T13:49:27;7.00;99.90
15636;DHT22;7917;50.818;6.972;2022-11-20T13:52:27;6.90;99.90
15636;DHT22;7917;50.818;6.972;2022-11-20T13:55:17;6.90;99.90
15636;DHT22;7917;50.818;6.972;2022-11-20T13:58:12;6.80;99.90
15636;DHT22;7917;50.818;6.972;2022-11-20T14:00:48;6.80;99.90
15636;DHT22;7917;50.818;6.972;2022-11-20T14:03:19;6.80;99.90
15636;DHT22;7917;50.818;6.972;2022-11-20T14:05:51;6.70;99.90
15636;DHT22;7917;50.818;6.972;2022-11-20T14:08:33;6.70;99.90
15636;DHT22;7917;50.818;6.972;2022-11-20T14:11:14;6.70;99.90
15636;DHT22;7917;50.818;6.972;2022-11-20T14:13:53;6.70;99.90
15636;DHT22;7917;50.818;6.972;2022-11-20T14:16:21;6.70;99.90
15636;DHT22;7917;50.818;6.972;2022-11-20T14:18:48;6.70;99.90
15636;DHT22;7917;50.818;6.972;2022-11-20T14:21:22;6.70;99.90
15636;DHT22;7917;50.818;6.972;2022-11-20T14:23:53;6.70;99.90
15636;DHT22;7917;50.818;6.972;2022-11-20T14:26:22;6.80;99.90
15636;DHT22;7917;50.818;6.972;2022-11-20T14:28:50;6.80;99.90
15636;DHT22;7917;50.818;6.972;2022-11-20T14:31:24;6.90;99.90
15636;DHT22;7917;50.818;6.972;2022-11-20T14:33:53;6.90;99.90
15636;DHT22;7917;50.818;6.972;2022-11-20T14:36:24;6.90;99.90
15636;DHT22;7917;50.818;6.972;2022-11-20T14:38:52;6.90;99.90
15636;DHT22;7917;50.818;6.972;2022-11-20T14:41:23;6.90;99.90
15636;DHT22;7917;50.818;6.972;2022-11-20T14:43:54;6.90;99.90
15636;DHT22;7917;50.818;6.972;2022-11-20T14:46:23;6.90;99.90
15636;DHT22;7917;50.818;6.972;2022-11-20T14:48:53;6.90;99.90
15636;DHT22;7917;50.818;6.972;2022-11-20T14:51:30;6.80;99.90
15636;DHT22;7917;50.818;6.972;2022-11-20T14:54:09;6.80;99.90
15636;DHT22;7917;50.818;6.972;2022-11-20T14:56:38;6.80;99.90
15636;DHT22;7917;50.818;6.972;2022-11-20T14:59:05;6.80;99.90
15636;DHT22;7917;50.818;6.972;2022-11-20T15:01:33;6.80;99.90
15636;DHT22;7917;50.818;6.972;2022-11-20T15:04:04;6.80;99.90
15636;DHT22;7917;50.818;6.972;2022-11-20T15:06:32;6.70;99.90
15636;DHT22;7917;50.818;6.972;2022-11-20T15:08:59;6.70;99.90
15636;DHT22;7917;50.818;6.972;2022-11-20T15:11:29;6.60;99.90
15636;DHT22;7917;50.818;6.972;2022-11-20T15:14:02;6.60;99.90
15636;DHT22;7917;50.818;6.972;2022-11-20T15:16:30;6.70;99.90
15636;DHT22;7917;50.818;6.972;2022-11-20T15:18:57;6.70;99.90
15636;DHT22;7917;50.818;6.972;2022-11-20T15:21:25;6.70;99.90
15636;DHT22;7917;50.818;6.972;2022-11-20T15:23:52;7.30;99.90
15636;DHT22;7917;50.818;6.972;2022-11-20T15:26:25;6.70;99.90
15636;DHT22;7917;50.818;6.972;2022-11-20T15:28:54;6.70;99.90
15636;DHT22;7917;50.818;6.972;2022-11-20T15:31:23;6.70;99.90
15636;DHT22;7917;50.818;6.972;2022-11-20T15:33:50;6.60;99.90
15636;DHT22;7917;50.818;6.972;2022-11-20T15:36:18;6.60;99.90
15636;DHT22;7917;50.818;6.972;2022-11-20T15:38:45;6.70;99.90
15636;DHT22;7917;50.818;6.972;2022-11-20T15:41:12;6.70;99.90
15636;DHT22;7917;50.818;6.972;2022-11-20T15:43:40;6.60;99.90
15636;DHT22;7917;50.818;6.972;2022-11-20T15:46:11;6.60;99.90
15636;DHT22;7917;50.818;6.972;2022-11-20T15:48:42;6.60;99.90
15636;DHT22;7917;50.818;6.972;2022-11-20T15:51:19;6.60;99.90
15636;DHT22;7917;50.818;6.972;2022-11-20T15:53:48;6.60;99.90
15636;DHT22;7917;50.818;6.972;2022-11-20T15:56:46;6.60;99.90
15636;DHT22;7917;50.818;6.972;2022-11-20T15:59:14;6.60;99.90
15636;DHT22;7917;50.818;6.972;2022-11-20T16:01:42;6.60;99.90
15636;DHT22;7917;50.818;6.972;2022-11-20T16:04:12;6.60;99.90
15636;DHT22;7917;50.818;6.972;2022-11-20T16:06:40;6.60;99.90
15636;DHT22;7917;50.818;6.972;2022-11-20T16:09:08;6.60;99.90
15636;DHT22;7917;50.818;6.972;2022-11-20T16:11:36;6.60;99.90
15636;DHT22;7917;50.818;6.972;2022-11-20T16:14:03;6.50;99.90
15636;DHT22;7917;50.818;6.972;2022-11-20T16:16:49;6.60;99.90
15636;DHT22;7917;50.818;6.972;2022-11-20T16:19:18;6.50;99.90
15636;DHT22;7917;50.818;6.972;2022-11-20T16:21:45;6.50;99.90
15636;DHT22;7917;50.818;6.972;2022-11-20T16:24:13;6.50;99.90
15636;DHT22;7917;50.818;6.972;2022-11-20T16:26:41;6.50;99.90
15636;DHT22;7917;50.818;6.972;2022-11-20T16:29:08;6.40;99.90